sensor_id;sensor_type;location;lat;lon;timestamp;pressure;altitude;pressure_sealevel;temperature;humidity
28306;BME280;7516;43.570;1.448;2022-11-13T00:00:08;100139.38;;;12.95;100.00
28306;BME280;7516;43.570;1.448;2022-11-13T00:02:37;100137.13;;;12.92;100.00
28306;BME280;7516;43.570;1.448;2022-11-13T00:05:06;100138.63;;;12.87;100.00
28306;BME280;7516;43.570;1.448;2022-11-13T00:07:33;100144.59;;;12.80;100.00
28306;BME280;7516;43.570;1.448;2022-11-13T00:10:01;100138.25;;;12.75;100.00
28306;BME280;7516;43.570;1.448;2022-11-13T00:12:28;100129.06;;;12.71;100.00
28306;BME280;7516;43.570;1.448;2022-11-13T00:14:56;100128.78;;;12.66;100.00
28306;BME280;7516;43.570;1.448;2022-11-13T00:17:23;100124.69;;;12.63;100.00
28306;BME280;7516;43.570;1.448;2022-11-13T00:19:52;100130.44;;;12.59;100.00
28306;BME280;7516;43.570;1.448;2022-11-13T00:22:20;100119.47;;;12.55;100.00
28306;BME280;7516;43.570;1.448;2022-11-13T00:24:47;100113.75;;;12.52;100.00
28306;BME280;7516;43.570;1.448;2022-11-13T00:27:15;100108.03;;;12.48;100.00
28306;BME280;7516;43.570;1.448;2022-11-13T00:29:43;100105.09;;;12.43;100.00
28306;BME280;7516;43.570;1.448;2022-11-13T00:32:10;100107.44;;;12.38;100.00
28306;BME280;7516;43.570;1.448;2022-11-13T00:34:38;100102.69;;;12.33;100.00
28306;BME280;7516;43.570;1.448;2022-11-13T00:37:07;100095.97;;;12.31;100.00
28306;BME280;7516;43.570;1.448;2022-11-13T00:39:34;100093.84;;;12.26;100.00
28306;BME280;7516;43.570;1.448;2022-11-13T00:42:02;100093.38;;;12.23;100.00
28306;BME280;7516;43.570;1.448;2022-11-13T00:44:29;100094.56;;;12.20;100.00
28306;BME280;7516;43.570;1.448;2022-11-13T00:46:57;100099.34;;;12.17;100.00
28306;BME280;7516;43.570;1.448;2022-11-13T00:49:24;100100.16;;;12.17;100.00
28306;BME280;7516;43.570;1.448;2022-11-13T00:51:52;100088.69;;;12.10;100.00
28306;BME280;7516;43.570;1.448;2022-11-13T00:54:21;100096.25;;;12.05;100.00
28306;BME280;7516;43.570;1.448;2022-11-13T00:56:48;100091.38;;;12.02;100.00
28306;BME280;7516;43.570;1.448;2022-11-13T00:59:16;100087.59;;;11.96;100.00
28306;BME280;7516;43.570;1.448;2022-11-13T01:01:43;100088.13;;;11.92;100.00
28306;BME280;7516;43.570;1.448;2022-11-13T01:04:11;100086.50;;;11.91;100.00
28306;BME280;7516;43.570;1.448;2022-11-13T01:06:38;100086.03;;;11.87;100.00
28306;BME280;7516;43.570;1.448;2022-11-13T01:09:06;100089.97;;;11.83;100.00
28306;BME280;7516;43.570;1.448;2022-11-13T01:11:35;100085.72;;;11.82;100.00
28306;BME280;7516;43.570;1.448;2022-11-13T01:14:02;100087.69;;;11.80;100.00
28306;BME280;7516;43.570;1.448;2022-11-13T01:16:29;100086.69;;;11.73;100.00
28306;BME280;7516;43.570;1.448;2022-11-13T01:18:57;100083.78;;;11.68;100.00
28306;BME280;7516;43.570;1.448;2022-11-13T01:21:26;100085.25;;;11.62;100.00
28306;BME280;7516;43.570;1.448;2022-11-13T01:23:53;100077.91;;;11.58;100.00
28306;BME280;7516;43.570;1.448;2022-11-13T01:26:23;100079.22;;;11.54;100.00
28306;BME280;7516;43.570;1.448;2022-11-13T01:28:52;100078.91;;;11.49;100.00
28306;BME280;7516;43.570;1.448;2022-11-13T01:31:21;100074.00;;;11.46;100.00
28306;BME280;7516;43.570;1.448;2022-11-13T01:33:49;100087.47;;;11.43;100.00
28306;BME280;7516;43.570;1.448;2022-11-13T01:36:18;100090.09;;;11.43;100.00
28306;BME280;7516;43.570;1.448;2022-11-13T01:38:46;100086.66;;;11.42;100.00
28306;BME280;7516;43.570;1.448;2022-11-13T01:41:17;100085.00;;;11.41;100.00
28306;BME280;7516;43.570;1.448;2022-11-13T01:43:45;100079.28;;;11.38;100.00
28306;BME280;7516;43.570;1.448;2022-11-13T01:46:23;100086.69;;;11.34;100.00
28306;BME280;7516;43.570;1.448;2022-11-13T01:48:54;100080.94;;;11.30;100.00
28306;BME280;7516;43.570;1.448;2022-11-13T01:51:27;100074.38;;;11.26;100.00
28306;BME280;7516;43.570;1.448;2022-11-13T01:53:56;100080.94;;;11.22;100.00
28306;BME280;7516;43.570;1.448;2022-11-13T01:56:24;100074.22;;;11.20;100.00
28306;BME280;7516;43.570;1.448;2022-11-13T01:59:01;100079.16;;;11.15;100.00
28306;BME280;7516;43.570;1.448;2022-11-13T02:01:31;100075.22;;;11.11;100.00
28306;BME280;7516;43.570;1.448;2022-11-13T02:03:59;100072.94;;;11.08;100.00
28306;BME280;7516;43.570;1.448;2022-11-13T02:06:29;100076.03;;;11.11;100.00
28306;BME280;7516;43.570;1.448;2022-11-13T02:08:59;100070.47;;;11.14;100.00
28306;BME280;7516;43.570;1.448;2022-11-13T02:11:26;100060.63;;;11.08;100.00
28306;BME280;7516;43.570;1.448;2022-11-13T02:13:54;100069.34;;;11.01;100.00
28306;BME280;7516;43.570;1.448;2022-11-13T02:16:22;100058.38;;;10.97;100.00
28306;BME280;7516;43.570;1.448;2022-11-13T02:18:52;100055.91;;;10.96;100.00
28306;BME280;7516;43.570;1.448;2022-11-13T02:21:31;100060.19;;;10.97;100.00
28306;BME280;7516;43.570;1.448;2022-11-13T02:24:13;100060.03;;;10.90;100.00
28306;BME280;7516;43.570;1.448;2022-11-13T02:26:42;100058.69;;;10.86;100.00
28306;BME280;7516;43.570;1.448;2022-11-13T02:29:11;100061.66;;;10.83;100.00
28306;BME280;7516;43.570;1.448;2022-11-13T02:31:38;100062.81;;;10.80;100.00
28306;BME280;7516;43.570;1.448;2022-11-13T02:34:05;100060.34;;;10.79;100.00
28306;BME280;7516;43.570;1.448;2022-11-13T02:36:33;100055.28;;;10.77;100.00
28306;BME280;7516;43.570;1.448;2022-11-13T02:39:05;100055.13;;;10.71;100.00
28306;BME280;7516;43.570;1.448;2022-11-13T02:41:34;100053.47;;;10.70;100.00
28306;BME280;7516;43.570;1.448;2022-11-13T02:44:03;100049.88;;;10.71;100.00
28306;BME280;7516;43.570;1.448;2022-11-13T02:46:31;100053.31;;;10.71;100.00
28306;BME280;7516;43.570;1.448;2022-11-13T02:48:58;100051.16;;;10.67;100.00
28306;BME280;7516;43.570;1.448;2022-11-13T02:51:26;100050.50;;;10.65;100.00
28306;BME280;7516;43.570;1.448;2022-11-13T02:53:54;100059.84;;;10.59;100.00
28306;BME280;7516;43.570;1.448;2022-11-13T02:56:21;100064.44;;;10.57;100.00
28306;BME280;7516;43.570;1.448;2022-11-13T02:58:50;100063.44;;;10.58;100.00
28306;BME280;7516;43.570;1.448;2022-11-13T03:01:17;100061.00;;;10.56;100.00
28306;BME280;7516;43.570;1.448;2022-11-13T03:03:45;100058.38;;;10.56;100.00
28306;BME280;7516;43.570;1.448;2022-11-13T03:06:12;100052.50;;;10.54;100.00
28306;BME280;7516;43.570;1.448;2022-11-13T03:08:40;100045.94;;;10.50;100.00
28306;BME280;7516;43.570;1.448;2022-11-13T03:11:09;100053.47;;;10.45;100.00
28306;BME280;7516;43.570;1.448;2022-11-13T03:13:37;100050.34;;;10.42;100.00
28306;BME280;7516;43.570;1.448;2022-11-13T03:16:09;100046.09;;;10.41;100.00
28306;BME280;7516;43.570;1.448;2022-11-13T03:18:36;100041.66;;;10.41;100.00
28306;BME280;7516;43.570;1.448;2022-11-13T03:21:09;100045.25;;;10.40;100.00
28306;BME280;7516;43.570;1.448;2022-11-13T03:23:38;100044.94;;;10.35;100.00
28306;BME280;7516;43.570;1.448;2022-11-13T03:26:07;100047.56;;;10.35;100.00
28306;BME280;7516;43.570;1.448;2022-11-13T03:28:35;100050.50;;;10.32;100.00
28306;BME280;7516;43.570;1.448;2022-11-13T03:31:03;100050.66;;;10.31;100.00
28306;BME280;7516;43.570;1.448;2022-11-13T03:33:32;100045.09;;;10.34;100.00
28306;BME280;7516;43.570;1.448;2022-11-13T03:36:00;100059.34;;;10.39;100.00
28306;BME280;7516;43.570;1.448;2022-11-13T03:38:27;100052.81;;;10.35;100.00
28306;BME280;7516;43.570;1.448;2022-11-13T03:40:55;100050.34;;;10.34;100.00
28306;BME280;7516;43.570;1.448;2022-11-13T03:43:22;100043.97;;;10.28;100.00
28306;BME280;7516;43.570;1.448;2022-11-13T03:45:50;100043.59;;;10.23;100.00
28306;BME280;7516;43.570;1.448;2022-11-13T03:48:17;100035.09;;;10.21;100.00
28306;BME280;7516;43.570;1.448;2022-11-13T03:50:48;100045.91;;;10.18;100.00
28306;BME280;7516;43.570;1.448;2022-11-13T03:53:16;100034.88;;;10.14;100.00
28306;BME280;7516;43.570;1.448;2022-11-13T03:55:44;100038.47;;;10.13;100.00
28306;BME280;7516;43.570;1.448;2022-11-13T03:58:12;100034.41;;;10.11;100.00
28306;BME280;7516;43.570;1.448;2022-11-13T04:00:40;100030.47;;;10.07;100.00
28306;BME280;7516;43.570;1.448;2022-11-13T04:03:08;100044.84;;;10.03;100.00
28306;BME280;7516;43.570;1.448;2022-11-13T04:05:35;100038.63;;;10.04;100.00
28306;BME280;7516;43.570;1.448;2022-11-13T04:08:05;100048.63;;;10.08;100.00
28306;BME280;7516;43.570;1.448;2022-11-13T04:10:32;100047.00;;;10.07;100.00
28306;BME280;7516;43.570;1.448;2022-11-13T04:13:00;100049.09;;;10.04;100.00
28306;BME280;7516;43.570;1.448;2022-11-13T04:15:27;100039.13;;;9.99;100.00
28306;BME280;7516;43.570;1.448;2022-11-13T04:17:55;100040.91;;;9.99;100.00
28306;BME280;7516;43.570;1.448;2022-11-13T04:20:22;100024.69;;;9.95;100.00
28306;BME280;7516;43.570;1.448;2022-11-13T04:22:50;100029.31;;;9.93;100.00
28306;BME280;7516;43.570;1.448;2022-11-13T04:25:19;100022.88;;;9.88;100.00
28306;BME280;7516;43.570;1.448;2022-11-13T04:27:48;100023.22;;;9.85;100.00
28306;BME280;7516;43.570;1.448;2022-11-13T04:30:16;100024.50;;;9.80;100.00
28306;BME280;7516;43.570;1.448;2022-11-13T04:32:44;100025.00;;;9.76;100.00
28306;BME280;7516;43.570;1.448;2022-11-13T04:35:11;100024.81;;;9.77;100.00
28306;BME280;7516;43.570;1.448;2022-11-13T04:37:39;100027.44;;;9.77;100.00
28306;BME280;7516;43.570;1.448;2022-11-13T04:40:08;100032.03;;;9.75;100.00
28306;BME280;7516;43.570;1.448;2022-11-13T04:42:37;100029.41;;;9.75;100.00
28306;BME280;7516;43.570;1.448;2022-11-13T04:45:16;100025.16;;;9.74;100.00
28306;BME280;7516;43.570;1.448;2022-11-13T04:47:44;100025.47;;;9.71;100.00
28306;BME280;7516;43.570;1.448;2022-11-13T04:50:12;100019.56;;;9.69;100.00
28306;BME280;7516;43.570;1.448;2022-11-13T04:52:40;100023.97;;;9.69;100.00
28306;BME280;7516;43.570;1.448;2022-11-13T04:55:08;100018.91;;;9.67;100.00
28306;BME280;7516;43.570;1.448;2022-11-13T04:57:37;100015.63;;;9.65;100.00
28306;BME280;7516;43.570;1.448;2022-11-13T05:00:06;100013.84;;;9.66;100.00
28306;BME280;7516;43.570;1.448;2022-11-13T05:02:34;100021.84;;;9.64;100.00
28306;BME280;7516;43.570;1.448;2022-11-13T05:05:02;100024.16;;;9.67;100.00
28306;BME280;7516;43.570;1.448;2022-11-13T05:07:30;100019.91;;;9.66;100.00
28306;BME280;7516;43.570;1.448;2022-11-13T05:09:57;100030.34;;;9.66;100.00
28306;BME280;7516;43.570;1.448;2022-11-13T05:12:24;100023.50;;;9.65;100.00
28306;BME280;7516;43.570;1.448;2022-11-13T05:14:53;100022.16;;;9.61;100.00
28306;BME280;7516;43.570;1.448;2022-11-13T05:17:21;100023.94;;;9.61;100.00
28306;BME280;7516;43.570;1.448;2022-11-13T05:19:49;100014.28;;;9.53;100.00
28306;BME280;7516;43.570;1.448;2022-11-13T05:22:16;100021.44;;;9.51;100.00
28306;BME280;7516;43.570;1.448;2022-11-13T05:24:44;100018.84;;;9.51;100.00
28306;BME280;7516;43.570;1.448;2022-11-13T05:27:11;100014.56;;;9.50;100.00
28306;BME280;7516;43.570;1.448;2022-11-13T05:29:39;100014.91;;;9.47;100.00
28306;BME280;7516;43.570;1.448;2022-11-13T05:32:07;100014.91;;;9.47;100.00
28306;BME280;7516;43.570;1.448;2022-11-13T05:34:35;100015.06;;;9.46;100.00
28306;BME280;7516;43.570;1.448;2022-11-13T05:37:02;100011.09;;;9.41;100.00
28306;BME280;7516;43.570;1.448;2022-11-13T05:39:30;100008.69;;;9.40;100.00
28306;BME280;7516;43.570;1.448;2022-11-13T05:41:57;100009.94;;;9.36;100.00
28306;BME280;7516;43.570;1.448;2022-11-13T05:44:25;100009.28;;;9.34;100.00
28306;BME280;7516;43.570;1.448;2022-11-13T05:46:52;100004.38;;;9.31;100.00
28306;BME280;7516;43.570;1.448;2022-11-13T05:49:21;100003.03;;;9.27;100.00
28306;BME280;7516;43.570;1.448;2022-11-13T05:51:49;100005.81;;;9.25;100.00
28306;BME280;7516;43.570;1.448;2022-11-13T05:54:16;99999.28;;;9.21;100.00
28306;BME280;7516;43.570;1.448;2022-11-13T05:56:44;99996.13;;;9.18;100.00
28306;BME280;7516;43.570;1.448;2022-11-13T05:59:11;99995.16;;;9.19;100.00
28306;BME280;7516;43.570;1.448;2022-11-13T06:01:40;99991.88;;;9.17;100.00
28306;BME280;7516;43.570;1.448;2022-11-13T06:04:08;99985.34;;;9.13;100.00
28306;BME280;7516;43.570;1.448;2022-11-13T06:06:37;99992.34;;;9.12;100.00
28306;BME280;7516;43.570;1.448;2022-11-13T06:09:06;99993.34;;;9.11;100.00
28306;BME280;7516;43.570;1.448;2022-11-13T06:11:33;99992.50;;;9.11;100.00
28306;BME280;7516;43.570;1.448;2022-11-13T06:14:01;99986.59;;;9.09;100.00
28306;BME280;7516;43.570;1.448;2022-11-13T06:16:32;99986.28;;;9.03;100.00
28306;BME280;7516;43.570;1.448;2022-11-13T06:19:02;99987.25;;;9.02;100.00
28306;BME280;7516;43.570;1.448;2022-11-13T06:21:32;99979.41;;;9.02;100.00
28306;BME280;7516;43.570;1.448;2022-11-13T06:24:01;99976.25;;;8.99;100.00
28306;BME280;7516;43.570;1.448;2022-11-13T06:26:30;99971.53;;;8.94;100.00
28306;BME280;7516;43.570;1.448;2022-11-13T06:28:58;99973.16;;;8.95;100.00
28306;BME280;7516;43.570;1.448;2022-11-13T06:31:27;99975.25;;;8.92;100.00
28306;BME280;7516;43.570;1.448;2022-11-13T06:33:56;99977.53;;;8.87;100.00
28306;BME280;7516;43.570;1.448;2022-11-13T06:36:26;99970.94;;;8.83;100.00
28306;BME280;7516;43.570;1.448;2022-11-13T06:38:54;99968.50;;;8.81;100.00
28306;BME280;7516;43.570;1.448;2022-11-13T06:41:24;99961.94;;;8.77;100.00
28306;BME280;7516;43.570;1.448;2022-11-13T06:43:52;99965.81;;;8.73;100.00
28306;BME280;7516;43.570;1.448;2022-11-13T06:46:22;99969.75;;;8.69;100.00
28306;BME280;7516;43.570;1.448;2022-11-13T06:48:50;99969.06;;;8.67;100.00
28306;BME280;7516;43.570;1.448;2022-11-13T06:51:20;99970.03;;;8.66;100.00
28306;BME280;7516;43.570;1.448;2022-11-13T06:53:48;99972.66;;;8.66;100.00
28306;BME280;7516;43.570;1.448;2022-11-13T06:56:16;99979.22;;;8.70;100.00
28306;BME280;7516;43.570;1.448;2022-11-13T06:58:45;99975.59;;;8.71;100.00
28306;BME280;7516;43.570;1.448;2022-11-13T07:01:14;99981.81;;;8.70;100.00
28306;BME280;7516;43.570;1.448;2022-11-13T07:03:42;99971.53;;;8.68;100.00
28306;BME280;7516;43.570;1.448;2022-11-13T07:06:11;99976.22;;;8.65;100.00
28306;BME280;7516;43.570;1.448;2022-11-13T07:08:40;99986.19;;;8.61;100.00
28306;BME280;7516;43.570;1.448;2022-11-13T07:11:10;99985.50;;;8.59;100.00
28306;BME280;7516;43.570;1.448;2022-11-13T07:13:38;99986.19;;;8.61;100.00
28306;BME280;7516;43.570;1.448;2022-11-13T07:16:08;99988.94;;;8.60;100.00
28306;BME280;7516;43.570;1.448;2022-11-13T07:18:36;99986.63;;;8.57;100.00
28306;BME280;7516;43.570;1.448;2022-11-13T07:21:06;99991.84;;;8.57;100.00
28306;BME280;7516;43.570;1.448;2022-11-13T07:23:34;99993.34;;;8.59;100.00
28306;BME280;7516;43.570;1.448;2022-11-13T07:26:06;99998.41;;;8.61;100.00
28306;BME280;7516;43.570;1.448;2022-11-13T07:28:34;99993.00;;;8.62;100.00
28306;BME280;7516;43.570;1.448;2022-11-13T07:31:01;99996.44;;;8.63;100.00
28306;BME280;7516;43.570;1.448;2022-11-13T07:33:30;99985.03;;;8.64;100.00
28306;BME280;7516;43.570;1.448;2022-11-13T07:35:58;99986.69;;;8.65;100.00
28306;BME280;7516;43.570;1.448;2022-11-13T07:38:26;99987.34;;;8.67;100.00
28306;BME280;7516;43.570;1.448;2022-11-13T07:40:53;99988.84;;;8.70;100.00
28306;BME280;7516;43.570;1.448;2022-11-13T07:43:23;99992.09;;;8.72;100.00
28306;BME280;7516;43.570;1.448;2022-11-13T07:45:50;99997.84;;;8.75;100.00
28306;BME280;7516;43.570;1.448;2022-11-13T07:48:20;100005.44;;;8.86;100.00
28306;BME280;7516;43.570;1.448;2022-11-13T07:50:49;99995.53;;;8.98;100.00
28306;BME280;7516;43.570;1.448;2022-11-13T07:53:18;99997.03;;;9.00;100.00
28306;BME280;7516;43.570;1.448;2022-11-13T07:55:46;99998.19;;;9.06;100.00
28306;BME280;7516;43.570;1.448;2022-11-13T07:58:14;100002.66;;;9.14;100.00
28306;BME280;7516;43.570;1.448;2022-11-13T08:00:42;100004.94;;;9.17;100.00
28306;BME280;7516;43.570;1.448;2022-11-13T08:03:12;100000.09;;;9.22;100.00
28306;BME280;7516;43.570;1.448;2022-11-13T08:05:40;100000.56;;;9.25;100.00
28306;BME280;7516;43.570;1.448;2022-11-13T08:08:11;99991.75;;;9.26;100.00
28306;BME280;7516;43.570;1.448;2022-11-13T08:10:39;99996.34;;;9.32;100.00
28306;BME280;7516;43.570;1.448;2022-11-13T08:13:08;99999.66;;;9.34;100.00
28306;BME280;7516;43.570;1.448;2022-11-13T08:15:36;99996.72;;;9.37;100.00
28306;BME280;7516;43.570;1.448;2022-11-13T08:18:04;99995.41;;;9.41;100.00
28306;BME280;7516;43.570;1.448;2022-11-13T08:20:32;100002.66;;;9.48;100.00
28306;BME280;7516;43.570;1.448;2022-11-13T08:23:01;100006.56;;;9.52;100.00
28306;BME280;7516;43.570;1.448;2022-11-13T08:25:32;100003.16;;;9.59;100.00
28306;BME280;7516;43.570;1.448;2022-11-13T08:28:00;100004.50;;;9.63;100.00
28306;BME280;7516;43.570;1.448;2022-11-13T08:30:28;100000.59;;;9.67;100.00
28306;BME280;7516;43.570;1.448;2022-11-13T08:32:55;99998.47;;;9.71;100.00
28306;BME280;7516;43.570;1.448;2022-11-13T08:35:23;99993.59;;;9.76;100.00
28306;BME280;7516;43.570;1.448;2022-11-13T08:37:50;99989.97;;;9.77;100.00
28306;BME280;7516;43.570;1.448;2022-11-13T08:40:18;99987.22;;;9.87;100.00
28306;BME280;7516;43.570;1.448;2022-11-13T08:42:47;99994.44;;;9.93;100.00
28306;BME280;7516;43.570;1.448;2022-11-13T08:45:15;99991.03;;;10.00;100.00
28306;BME280;7516;43.570;1.448;2022-11-13T08:47:42;99985.28;;;10.05;100.00
28306;BME280;7516;43.570;1.448;2022-11-13T08:50:10;99983.66;;;10.12;100.00
28306;BME280;7516;43.570;1.448;2022-11-13T08:52:37;99980.44;;;10.18;100.00
28306;BME280;7516;43.570;1.448;2022-11-13T08:55:05;99985.31;;;10.29;100.00
28306;BME280;7516;43.570;1.448;2022-11-13T08:57:33;99980.59;;;10.33;100.00
28306;BME280;7516;43.570;1.448;2022-11-13T09:00:01;99978.94;;;10.40;100.00
28306;BME280;7516;43.570;1.448;2022-11-13T09:02:30;99977.00;;;10.50;100.00
28306;BME280;7516;43.570;1.448;2022-11-13T09:04:58;99976.16;;;10.57;100.00
28306;BME280;7516;43.570;1.448;2022-11-13T09:07:25;99974.69;;;10.63;100.00
28306;BME280;7516;43.570;1.448;2022-11-13T09:09:53;99975.00;;;10.68;100.00
28306;BME280;7516;43.570;1.448;2022-11-13T09:12:21;99971.09;;;10.72;100.00
28306;BME280;7516;43.570;1.448;2022-11-13T09:14:48;99965.97;;;10.79;100.00
28306;BME280;7516;43.570;1.448;2022-11-13T09:17:19;99964.16;;;10.87;100.00
28306;BME280;7516;43.570;1.448;2022-11-13T09:19:46;99962.50;;;10.94;100.00
28306;BME280;7516;43.570;1.448;2022-11-13T09:22:14;99965.25;;;11.01;100.00
28306;BME280;7516;43.570;1.448;2022-11-13T09:24:41;99957.72;;;11.06;100.00
28306;BME280;7516;43.570;1.448;2022-11-13T09:27:09;99963.25;;;11.11;100.00
28306;BME280;7516;43.570;1.448;2022-11-13T09:29:36;99954.91;;;11.16;100.00
28306;BME280;7516;43.570;1.448;2022-11-13T09:32:04;99956.03;;;11.21;100.00
28306;BME280;7516;43.570;1.448;2022-11-13T09:34:33;99962.22;;;11.28;100.00
28306;BME280;7516;43.570;1.448;2022-11-13T09:37:00;99955.28;;;11.36;100.00
28306;BME280;7516;43.570;1.448;2022-11-13T09:39:28;99952.47;;;11.45;100.00
28306;BME280;7516;43.570;1.448;2022-11-13T09:42:03;99945.03;;;11.57;100.00
28306;BME280;7516;43.570;1.448;2022-11-13T09:44:35;99946.28;;;11.69;100.00
28306;BME280;7516;43.570;1.448;2022-11-13T09:47:12;99953.50;;;11.75;100.00
28306;BME280;7516;43.570;1.448;2022-11-13T09:49:47;99949.16;;;11.82;100.00
28306;BME280;7516;43.570;1.448;2022-11-13T09:52:17;99953.72;;;11.88;100.00
28306;BME280;7516;43.570;1.448;2022-11-13T09:54:47;99946.59;;;11.97;100.00
28306;BME280;7516;43.570;1.448;2022-11-13T09:57:23;99946.84;;;12.10;100.00
28306;BME280;7516;43.570;1.448;2022-11-13T09:59:58;99939.38;;;12.22;100.00
28306;BME280;7516;43.570;1.448;2022-11-13T10:02:36;99938.81;;;12.26;100.00
28306;BME280;7516;43.570;1.448;2022-11-13T10:05:15;99940.56;;;12.34;100.00
28306;BME280;7516;43.570;1.448;2022-11-13T10:07:50;99942.94;;;12.43;100.00
28306;BME280;7516;43.570;1.448;2022-11-13T10:10:34;99943.84;;;12.51;100.00
28306;BME280;7516;43.570;1.448;2022-11-13T10:13:03;99947.59;;;12.56;100.00
28306;BME280;7516;43.570;1.448;2022-11-13T10:15:33;99938.09;;;12.70;100.00
28306;BME280;7516;43.570;1.448;2022-11-13T10:18:06;99940.19;;;12.74;100.00
28306;BME280;7516;43.570;1.448;2022-11-13T10:20:42;99939.28;;;12.82;100.00
28306;BME280;7516;43.570;1.448;2022-11-13T10:23:15;99936.66;;;12.97;100.00
28306;BME280;7516;43.570;1.448;2022-11-13T10:25:44;99930.47;;;13.04;100.00
28306;BME280;7516;43.570;1.448;2022-11-13T10:28:15;99936.56;;;13.05;100.00
28306;BME280;7516;43.570;1.448;2022-11-13T10:30:44;99929.88;;;13.17;100.00
28306;BME280;7516;43.570;1.448;2022-11-13T10:33:16;99925.97;;;13.28;100.00
28306;BME280;7516;43.570;1.448;2022-11-13T10:35:49;99925.22;;;13.34;100.00
28306;BME280;7516;43.570;1.448;2022-11-13T10:38:26;99923.28;;;13.42;100.00
28306;BME280;7516;43.570;1.448;2022-11-13T10:41:05;99914.66;;;13.48;100.00
28306;BME280;7516;43.570;1.448;2022-11-13T10:43:34;99912.53;;;13.59;100.00
28306;BME280;7516;43.570;1.448;2022-11-13T10:46:03;99915.41;;;13.64;100.00
28306;BME280;7516;43.570;1.448;2022-11-13T10:48:33;99909.78;;;13.67;100.00
28306;BME280;7516;43.570;1.448;2022-11-13T10:51:05;99897.66;;;13.72;100.00
28306;BME280;7516;43.570;1.448;2022-11-13T10:53:39;99887.81;;;13.81;100.00
28306;BME280;7516;43.570;1.448;2022-11-13T10:56:19;99882.06;;;13.92;100.00
28306;BME280;7516;43.570;1.448;2022-11-13T10:58:59;99877.28;;;14.02;100.00
28306;BME280;7516;43.570;1.448;2022-11-13T11:01:27;99877.97;;;14.11;100.00
28306;BME280;7516;43.570;1.448;2022-11-13T11:03:55;99880.47;;;14.19;100.00
28306;BME280;7516;43.570;1.448;2022-11-13T11:06:32;99871.19;;;14.23;100.00
28306;BME280;7516;43.570;1.448;2022-11-13T11:09:13;99868.22;;;14.32;100.00
28306;BME280;7516;43.570;1.448;2022-11-13T11:11:55;99863.03;;;14.46;100.00
28306;BME280;7516;43.570;1.448;2022-11-13T11:14:53;99848.31;;;14.58;100.00
28306;BME280;7516;43.570;1.448;2022-11-13T11:17:26;99852.19;;;14.62;100.00
28306;BME280;7516;43.570;1.448;2022-11-13T11:19:57;99848.53;;;14.63;100.00
28306;BME280;7516;43.570;1.448;2022-11-13T11:22:32;99849.59;;;14.68;100.00
28306;BME280;7516;43.570;1.448;2022-11-13T11:25:05;99850.63;;;14.74;100.00
28306;BME280;7516;43.570;1.448;2022-11-13T11:27:37;99850.25;;;14.77;100.00
28306;BME280;7516;43.570;1.448;2022-11-13T11:30:14;99836.47;;;14.88;100.00
28306;BME280;7516;43.570;1.448;2022-11-13T11:32:48;99838.94;;;14.96;99.56
28306;BME280;7516;43.570;1.448;2022-11-13T11:35:21;99834.47;;;14.97;99.64
28306;BME280;7516;43.570;1.448;2022-11-13T11:37:56;99830.25;;;15.02;99.35
28306;BME280;7516;43.570;1.448;2022-11-13T11:40:29;99827.38;;;15.04;99.96
28306;BME280;7516;43.570;1.448;2022-11-13T11:43:06;99827.19;;;15.05;100.00
28306;BME280;7516;43.570;1.448;2022-11-13T11:45:40;99821.91;;;15.05;100.00
28306;BME280;7516;43.570;1.448;2022-11-13T11:48:12;99815.06;;;15.11;99.16
28306;BME280;7516;43.570;1.448;2022-11-13T11:50:46;99813.06;;;15.26;99.05
28306;BME280;7516;43.570;1.448;2022-11-13T11:53:24;99806.16;;;15.32;98.58
28306;BME280;7516;43.570;1.448;2022-11-13T11:56:06;99797.84;;;15.41;97.31
28306;BME280;7516;43.570;1.448;2022-11-13T11:58:55;99796.81;;;15.49;97.72
28306;BME280;7516;43.570;1.448;2022-11-13T12:01:43;99784.03;;;15.53;96.66
28306;BME280;7516;43.570;1.448;2022-11-13T12:04:24;99783.44;;;15.57;96.83
28306;BME280;7516;43.570;1.448;2022-11-13T12:07:10;99781.84;;;15.69;94.99
28306;BME280;7516;43.570;1.448;2022-11-13T12:09:46;99780.22;;;15.68;95.49
28306;BME280;7516;43.570;1.448;2022-11-13T12:12:21;99771.47;;;15.74;94.74
28306;BME280;7516;43.570;1.448;2022-11-13T12:15:02;99774.72;;;15.70;95.11
28306;BME280;7516;43.570;1.448;2022-11-13T12:17:47;99769.44;;;15.76;94.11
28306;BME280;7516;43.570;1.448;2022-11-13T12:20:27;99775.13;;;15.80;94.42
28306;BME280;7516;43.570;1.448;2022-11-13T12:23:05;99765.56;;;15.86;93.73
28306;BME280;7516;43.570;1.448;2022-11-13T12:25:44;99760.50;;;15.91;93.25
28306;BME280;7516;43.570;1.448;2022-11-13T12:28:18;99759.88;;;15.89;93.37
28306;BME280;7516;43.570;1.448;2022-11-13T12:30:55;99755.78;;;15.93;92.48
28306;BME280;7516;43.570;1.448;2022-11-13T12:33:33;99746.44;;;15.97;92.82
28306;BME280;7516;43.570;1.448;2022-11-13T12:36:04;99747.66;;;16.07;92.14
28306;BME280;7516;43.570;1.448;2022-11-13T12:38:37;99736.03;;;16.15;91.63
28306;BME280;7516;43.570;1.448;2022-11-13T12:41:16;99737.06;;;16.14;92.05
28306;BME280;7516;43.570;1.448;2022-11-13T12:44:12;99732.97;;;16.25;89.75
28306;BME280;7516;43.570;1.448;2022-11-13T12:46:42;99723.78;;;16.27;90.98
28306;BME280;7516;43.570;1.448;2022-11-13T12:49:26;99720.13;;;16.28;90.15
28306;BME280;7516;43.570;1.448;2022-11-13T12:51:56;99728.44;;;16.38;89.88
28306;BME280;7516;43.570;1.448;2022-11-13T12:54:28;99723.97;;;16.39;88.90
28306;BME280;7516;43.570;1.448;2022-11-13T12:57:24;99722.13;;;16.39;86.73
28306;BME280;7516;43.570;1.448;2022-11-13T12:59:54;99726.00;;;16.43;86.76
28306;BME280;7516;43.570;1.448;2022-11-13T13:02:31;99708.84;;;16.52;85.03
28306;BME280;7516;43.570;1.448;2022-11-13T13:05:27;99718.22;;;16.48;86.88
28306;BME280;7516;43.570;1.448;2022-11-13T13:08:14;99702.09;;;16.56;86.81
28306;BME280;7516;43.570;1.448;2022-11-13T13:11:00;99707.63;;;16.62;86.06
28306;BME280;7516;43.570;1.448;2022-11-13T13:13:38;99701.47;;;16.68;86.81
28306;BME280;7516;43.570;1.448;2022-11-13T13:16:07;99699.44;;;16.70;85.85